Time;durP1;ratioP1;P1;durP2;ratioP2;P2;SDS_P1;SDS_P2;PMS_P1;PMS_P2;Temp;Humidity;BMP_temperature;BMP_pressure;BME280_temperature;BME280_humidity;BME280_pressure;Samples;Min_cycle;Max_cycle;Signal;HPM_P1;HPM_P2
2022/08/10 00:02:25;;;;;;;1.85;1.30;;;;;;;16.07;98.28;95255.03;1672210;85;21216;-51
2022/08/10 00:04:52;;;;;;;1.25;1.10;;;;;;;16.05;98.03;95256.12;1723639;81;21023;-51
2022/08/10 00:07:20;;;;;;;1.17;1.10;;;;;;;16.03;98.20;95255.83;1738826;81;21014;-50
2022/08/10 00:09:48;;;;;;;2.50;1.27;;;;;;;16.02;98.04;95255.67;1694437;83;21257;-51
2022/08/10 00:12:18;;;;;;;3.00;1.17;;;;;;;15.97;97.99;95253.55;1661269;84;21082;-50
2022/08/10 00:14:46;;;;;;;1.15;1.10;;;;;;;15.94;98.18;95260.65;1665456;84;20968;-51
2022/08/10 00:17:13;;;;;;;1.17;1.17;;;;;;;15.89;98.20;95264.82;1682998;85;21130;-50
2022/08/10 00:19:41;;;;;;;1.15;1.10;;;;;;;15.80;98.36;95249.61;1679079;85;21011;-50
2022/08/10 00:22:10;;;;;;;1.67;1.20;;;;;;;15.75;98.54;95254.38;1683477;84;21052;-50
2022/08/10 00:24:38;;;;;;;1.10;1.10;;;;;;;15.71;98.62;95253.79;1682431;85;21011;-51
2022/08/10 00:27:06;;;;;;;1.87;1.20;;;;;;;15.69;98.94;95254.13;1685905;84;20979;-50
2022/08/10 00:29:34;;;;;;;1.00;1.00;;;;;;;15.69;99.27;95252.73;1721008;81;21006;-50
2022/08/10 00:32:02;;;;;;;1.30;1.20;;;;;;;15.66;99.20;95250.27;1672580;83;21421;-50
2022/08/10 00:34:32;;;;;;;1.95;1.20;;;;;;;15.63;99.45;95251.81;1692459;83;21246;-50
2022/08/10 00:36:59;;;;;;;1.20;1.10;;;;;;;15.60;99.87;95252.75;1692364;83;21018;-50
2022/08/10 00:39:27;;;;;;;1.05;1.05;;;;;;;15.62;100.00;95253.05;1661221;84;21506;-52
2022/08/10 00:41:56;;;;;;;1.10;1.10;;;;;;;15.64;100.00;95245.81;1651747;84;21084;-51
2022/08/10 00:44:23;;;;;;;2.27;1.20;;;;;;;15.67;100.00;95242.09;1669618;85;21546;-51
2022/08/10 00:46:51;;;;;;;1.00;1.00;;;;;;;15.73;100.00;95242.23;1678605;84;21518;-50
2022/08/10 00:49:19;;;;;;;1.22;1.10;;;;;;;15.73;100.00;95240.22;1682661;85;21039;-50
2022/08/10 00:51:48;;;;;;;1.10;1.05;;;;;;;15.72;99.87;95240.06;1673506;84;21018;-50
2022/08/10 00:54:16;;;;;;;1.47;1.20;;;;;;;15.71;99.77;95236.39;1675342;83;21094;-50
2022/08/10 00:56:45;;;;;;;1.25;1.17;;;;;;;15.69;99.59;95238.87;1711991;81;21117;-51
2022/08/10 00:59:13;;;;;;;1.00;1.00;;;;;;;15.69;99.74;95236.09;1726214;82;21242;-51
2022/08/10 01:01:41;;;;;;;1.10;1.10;;;;;;;15.68;99.58;95234.53;1720486;82;21160;-51
2022/08/10 01:04:10;;;;;;;1.22;1.00;;;;;;;15.66;99.92;95232.23;1723894;82;21050;-51
2022/08/10 01:06:54;;;;;;;1.52;1.12;;;;;;;15.67;100.00;95226.84;1730900;82;21055;-51
2022/08/10 01:09:59;;;;;;;1.12;1.12;;;;;;;15.68;99.81;95228.98;1685060;84;20967;-51
2022/08/10 01:12:47;;;;;;;1.00;1.00;;;;;;;15.66;99.75;95226.69;1666960;84;21187;-51
2022/08/10 01:15:33;;;;;;;1.20;1.17;;;;;;;15.65;99.72;95233.48;1671703;85;21447;-51
2022/08/10 01:18:38;;;;;;;1.42;1.00;;;;;;;15.68;100.00;95231.75;1674549;84;21039;-52
2022/08/10 01:21:36;;;;;;;1.10;1.10;;;;;;;15.69;99.96;95231.30;1673888;84;20971;-51
2022/08/10 01:24:18;;;;;;;1.10;1.00;;;;;;;15.65;99.76;95233.48;1670837;85;20971;-50
2022/08/10 01:26:53;;;;;;;2.25;1.10;;;;;;;15.65;100.00;95237.64;1681672;85;21282;-50
2022/08/10 01:30:01;;;;;;;1.72;1.07;;;;;;;15.65;100.00;95239.03;1674169;84;21015;-49
2022/08/10 01:32:51;;;;;;;2.30;1.12;;;;;;;15.63;100.00;95241.50;1663826;85;21031;-51
2022/08/10 01:35:30;;;;;;;1.12;1.10;;;;;;;15.62;100.00;95242.73;1666978;84;21037;-51
2022/08/10 01:38:11;;;;;;;1.65;1.10;;;;;;;15.70;100.00;95243.93;1675692;84;21091;-51
2022/08/10 01:40:43;;;;;;;2.55;1.20;;;;;;;15.77;100.00;95247.75;1662149;84;21329;-50
2022/08/10 01:43:12;;;;;;;1.10;1.00;;;;;;;15.77;100.00;95246.36;1667413;85;21056;-50
2022/08/10 01:45:44;;;;;;;0.90;0.90;;;;;;;15.75;99.75;95245.31;1667908;84;20978;-50
2022/08/10 01:48:29;;;;;;;1.40;1.22;;;;;;;15.76;99.77;95241.30;1682396;83;27449;-50
2022/08/10 01:51:31;;;;;;;1.00;1.00;;;;;;;15.75;99.59;95244.67;1650249;85;21163;-50
2022/08/10 01:54:08;;;;;;;1.10;1.10;;;;;;;15.71;99.33;95242.69;1677136;84;21908;-50
2022/08/10 01:56:42;;;;;;;0.90;0.90;;;;;;;15.70;99.38;95241.16;1736845;81;20951;-50
2022/08/10 01:59:23;;;;;;;0.98;0.98;;;;;;;15.70;99.14;95245.31;1733776;81;21014;-51
2022/08/10 02:01:55;;;;;;;0.90;0.90;;;;;;;15.70;99.04;95240.41;1734074;82;21066;-51
2022/08/10 02:04:23;;;;;;;0.93;0.93;;;;;;;15.70;99.02;95243.18;1739015;82;21126;-51
2022/08/10 02:06:52;;;;;;;1.00;1.00;;;;;;;15.65;98.82;95240.41;1710653;83;21261;-50
2022/08/10 02:09:33;;;;;;;1.00;1.00;;;;;;;15.63;99.20;95246.27;1708813;83;21046;-50
2022/08/10 02:12:05;;;;;;;1.00;1.00;;;;;;;15.62;99.09;95245.52;1692786;83;21039;-50
2022/08/10 02:14:37;;;;;;;1.10;1.10;;;;;;;15.63;99.18;95235.17;1693720;84;20968;-50
2022/08/10 02:17:08;;;;;;;1.00;1.00;;;;;;;15.61;99.05;95244.58;1693722;84;21074;-51
2022/08/10 02:19:37;;;;;;;0.90;0.90;;;;;;;15.59;98.75;95240.91;1692343;83;21155;-50
2022/08/10 02:22:05;;;;;;;1.07;1.07;;;;;;;15.52;98.77;95245.37;1698139;83;21007;-52
2022/08/10 02:24:33;;;;;;;2.80;1.20;;;;;;;15.47;98.61;95248.78;1698155;83;20955;-51
2022/08/10 02:27:04;;;;;;;1.20;1.20;;;;;;;15.43;98.76;95248.19;1686519;84;21050;-53
2022/08/10 02:29:32;;;;;;;1.70;1.35;;;;;;;15.42;98.96;95257.74;1674519;83;21034;-52
2022/08/10 02:32:01;;;;;;;2.33;1.50;;;;;;;15.46;99.38;95250.63;1677176;85;21153;-53
2022/08/10 02:34:29;;;;;;;1.40;1.30;;;;;;;15.48;99.18;95257.86;1679408;85;21510;-52
2022/08/10 02:36:57;;;;;;;1.40;1.30;;;;;;;15.47;98.61;95257.70;1680252;84;21011;-53
2022/08/10 02:39:24;;;;;;;1.35;1.35;;;;;;;15.43;98.46;95253.73;1683146;84;21118;-52
2022/08/10 02:42:06;;;;;;;1.82;1.40;;;;;;;15.42;98.74;95254.97;1664193;84;21239;-51
2022/08/10 02:44:59;;;;;;;2.00;1.35;;;;;;;15.44;98.81;95249.72;1665932;85;21134;-51
2022/08/10 02:47:38;;;;;;;2.87;1.40;;;;;;;15.45;98.33;95242.94;1677146;84;21024;-50
2022/08/10 02:50:26;;;;;;;1.80;1.70;;;;;;;15.45;98.33;95242.94;1713891;82;21152;-51
2022/08/10 02:53:07;;;;;;;1.62;1.52;;;;;;;15.49;98.12;95252.47;1728541;82;20994;-51
2022/08/10 02:55:42;;;;;;;1.87;1.60;;;;;;;15.45;97.87;95249.88;1696968;83;21443;-52
2022/08/10 02:58:13;;;;;;;3.42;1.70;;;;;;;15.45;97.41;95251.86;1743842;81;22937;-49
2022/08/10 03:00:44;;;;;;;2.35;1.72;;;;;;;15.42;97.23;95256.36;1722536;82;21005;-51
2022/08/10 03:03:15;;;;;;;2.08;1.70;;;;;;;15.42;97.04;95257.74;1699755;82;20995;-52
2022/08/10 03:05:43;;;;;;;1.60;1.50;;;;;;;15.40;96.81;95256.66;1735261;81;20955;-52
2022/08/10 03:08:11;;;;;;;2.65;1.57;;;;;;;15.40;96.82;95255.27;1740796;81;21061;-52
2022/08/10 03:10:40;;;;;;;5.15;1.87;;;;;;;15.40;97.41;95249.09;1748791;81;21238;-51
2022/08/10 03:13:09;;;;;;;5.28;1.70;;;;;;;15.45;97.60;95249.88;1709513;83;20959;-52
2022/08/10 03:15:38;;;;;;;2.20;1.70;;;;;;;15.47;97.65;95248.78;1701289;83;20976;-52
2022/08/10 03:18:06;;;;;;;1.85;1.70;;;;;;;15.48;97.56;95253.09;1733842;81;21066;-52
2022/08/10 03:20:40;;;;;;;2.10;1.92;;;;;;;15.51;97.75;95249.38;1725250;82;21557;-51
2022/08/10 03:23:14;;;;;;;2.47;1.80;;;;;;;15.49;97.57;95250.47;1732202;82;21514;-51
2022/08/10 03:25:45;;;;;;;2.05;1.72;;;;;;;15.46;97.83;95248.64;1688214;83;21015;-50
2022/08/10 03:28:13;;;;;;;3.08;1.60;;;;;;;15.44;98.02;95249.72;1679855;83;21475;-51
2022/08/10 03:30:41;;;;;;;2.08;1.85;;;;;;;15.45;98.09;95250.48;1687808;83;21505;-52
2022/08/10 03:33:08;;;;;;;2.10;1.90;;;;;;;15.45;98.25;95249.09;1675493;85;20967;-51
2022/08/10 03:35:37;;;;;;;3.05;1.60;;;;;;;15.43;98.68;95251.56;1668483;84;21122;-51
2022/08/10 03:38:04;;;;;;;1.95;1.80;;;;;;;15.44;98.54;95258.05;1653467;85;21069;-51
2022/08/10 03:40:35;;;;;;;2.02;1.92;;;;;;;15.41;98.29;95260.36;1664138;84;21019;-51
2022/08/10 03:43:03;;;;;;;2.52;2.15;;;;;;;15.38;97.90;95258.50;1658944;84;21566;-51
2022/08/10 03:45:33;;;;;;;2.15;1.87;;;;;;;15.34;97.71;95257.90;1672385;85;21496;-51
2022/08/10 03:48:01;;;;;;;3.15;2.42;;;;;;;15.33;97.70;95261.91;1661627;85;21434;-51
2022/08/10 03:50:30;;;;;;;5.37;3.35;;;;;;;15.30;97.99;95258.68;1663790;85;21494;-51
2022/08/10 03:52:58;;;;;;;9.10;7.30;;;;;;;15.33;98.26;95263.92;1678338;85;20983;-51
2022/08/10 03:55:26;;;;;;;5.85;3.60;;;;;;;15.36;98.27;95262.36;1679363;84;21177;-51
2022/08/10 03:57:54;;;;;;;4.15;2.50;;;;;;;15.39;98.36;95260.67;1672350;84;21027;-51
2022/08/10 04:00:22;;;;;;;3.47;2.05;;;;;;;15.41;98.14;95265.91;1667171;85;21280;-51
2022/08/10 04:02:49;;;;;;;1.92;1.82;;;;;;;15.40;98.07;95266.36;1678553;85;21102;-50
2022/08/10 04:05:18;;;;;;;4.95;2.80;;;;;;;15.39;98.11;95268.35;1672562;85;21142;-52
2022/08/10 04:07:46;;;;;;;3.98;2.10;;;;;;;15.40;98.42;95258.80;1666589;84;21137;-51
2022/08/10 04:10:15;;;;;;;3.12;2.50;;;;;;;15.43;98.50;95256.51;1663854;85;20959;-51
2022/08/10 04:12:43;;;;;;;3.02;1.92;;;;;;;15.44;98.22;95257.26;1674108;85;21439;-50
2022/08/10 04:15:11;;;;;;;3.52;1.92;;;;;;;15.46;98.27;95261.11;1672200;85;21027;-52
2022/08/10 04:17:39;;;;;;;2.08;1.87;;;;;;;15.49;98.56;95257.41;1667688;83;21020;-50
2022/08/10 04:20:11;;;;;;;3.98;2.12;;;;;;;15.51;98.43;95259.09;1670491;84;21026;-52
2022/08/10 04:22:40;;;;;;;;;;;;;;;15.51;98.54;95266.03;1665974;85;21020;-51
2022/08/10 04:25:08;;;;;;;2.72;2.35;;;;;;;15.47;98.34;95266.81;1668796;84;21821;-50
2022/08/10 04:27:36;;;;;;;2.62;2.40;;;;;;;15.42;98.52;95267.45;1671423;85;20960;-51
2022/08/10 04:30:05;;;;;;;5.42;2.60;;;;;;;15.45;98.59;95269.89;1642478;85;21631;-50
2022/08/10 04:32:33;;;;;;;2.83;2.60;;;;;;;15.47;98.53;95271.58;1653150;85;21019;-51
2022/08/10 04:35:03;;;;;;;2.85;2.65;;;;;;;15.47;98.56;95270.97;1641597;85;21138;-52
2022/08/10 04:37:32;;;;;;;2.50;2.30;;;;;;;15.47;98.55;95277.13;1681589;85;21479;-52
2022/08/10 04:40:00;;;;;;;2.52;2.33;;;;;;;15.46;98.62;95274.98;1674650;85;21059;-52
2022/08/10 04:42:28;;;;;;;2.45;2.25;;;;;;;15.50;98.54;95281.13;1664585;85;21063;-51
2022/08/10 04:44:56;;;;;;;4.95;2.65;;;;;;;15.57;98.54;95280.04;1650395;84;21044;-51
2022/08/10 04:47:25;;;;;;;3.67;2.42;;;;;;;15.62;97.78;95282.95;1672850;85;21135;-50
2022/08/10 04:49:53;;;;;;;2.92;2.47;;;;;;;15.62;97.09;95282.95;1673882;83;22130;-50
2022/08/10 04:52:21;;;;;;;3.40;2.62;;;;;;;15.61;96.74;95284.20;1664070;83;21577;-49
2022/08/10 04:54:49;;;;;;;4.25;3.22;;;;;;;15.56;96.44;95286.19;1679354;85;21054;-50
2022/08/10 04:57:17;;;;;;;2.45;2.25;;;;;;;15.56;96.43;95281.27;1731016;82;21023;-50
2022/08/10 04:59:45;;;;;;;4.17;2.65;;;;;;;15.54;96.49;95277.56;1727183;83;21174;-50
2022/08/10 05:02:14;;;;;;;2.50;2.30;;;;;;;15.54;96.86;95276.81;1714021;81;21132;-51
2022/08/10 05:04:41;;;;;;;2.65;2.30;;;;;;;15.56;96.50;95279.25;1735678;82;21533;-49
2022/08/10 05:07:12;;;;;;;4.95;2.40;;;;;;;15.58;96.59;95281.58;1690760;83;21039;-50
2022/08/10 05:09:40;;;;;;;3.98;2.65;;;;;;;15.63;96.36;95278.16;1681204;84;21034;-51
2022/08/10 05:12:09;;;;;;;3.47;2.45;;;;;;;15.64;96.41;95276.92;1670531;84;21079;-50
2022/08/10 05:14:39;;;;;;;2.50;2.30;;;;;;;15.65;96.33;95277.08;1682999;83;21820;-50
2022/08/10 05:17:07;;;;;;;4.30;2.95;;;;;;;15.65;96.01;95276.47;1643894;85;20975;-50
2022/08/10 05:19:35;;;;;;;8.48;2.70;;;;;;;15.63;95.63;95276.78;1678096;85;21027;-54
2022/08/10 05:22:04;;;;;;;3.42;2.30;;;;;;;15.59;95.41;95276.17;1670985;84;20987;-51
2022/08/10 05:24:32;;;;;;;3.33;2.35;;;;;;;15.56;95.69;95272.95;1673574;84;20990;-51
2022/08/10 05:27:00;;;;;;;3.80;3.25;;;;;;;15.52;95.82;95270.97;1679477;83;21327;-52
2022/08/10 05:29:28;;;;;;;5.65;3.20;;;;;;;15.49;96.38;95269.10;1660309;85;20971;-50
2022/08/10 05:31:56;;;;;;;6.25;3.85;;;;;;;15.49;96.76;95280.19;1668798;84;21657;-55
2022/08/10 05:34:26;;;;;;;3.72;3.42;;;;;;;15.51;97.03;95274.34;1658395;84;21037;-51
2022/08/10 05:36:54;;;;;;;4.00;3.60;;;;;;;15.52;96.76;95273.74;1655534;84;21096;-53
2022/08/10 05:39:22;;;;;;;6.03;3.85;;;;;;;15.46;96.44;95276.97;1655158;84;21436;-54
2022/08/10 05:41:53;;;;;;;5.08;3.80;;;;;;;15.41;96.46;95274.23;1663881;84;21086;-51
2022/08/10 05:44:21;;;;;;;4.92;4.08;;;;;;;15.39;96.24;95268.35;1662295;84;21163;-53
2022/08/10 05:46:50;;;;;;;5.87;3.58;;;;;;;15.36;96.39;95278.99;1664419;84;21026;-53
2022/08/10 05:49:18;;;;;;;4.90;3.70;;;;;;;15.39;96.55;95275.92;1688994;82;21081;-51
2022/08/10 05:51:47;;;;;;;6.55;4.28;;;;;;;15.41;96.54;95274.83;1732303;81;21085;-53
2022/08/10 05:54:17;;;;;;;6.55;5.15;;;;;;;15.41;96.55;95277.61;1729547;80;21569;-52
2022/08/10 05:56:46;;;;;;;7.53;5.50;;;;;;;15.43;96.97;95274.53;1726508;80;21018;-53
2022/08/10 05:59:14;;;;;;;6.70;4.60;;;;;;;15.47;97.08;95279.29;1717738;80;21012;-56
2022/08/10 06:01:43;;;;;;;6.78;3.75;;;;;;;15.48;96.53;95282.21;1720737;81;21051;-56
2022/08/10 06:04:14;;;;;;;3.62;3.02;;;;;;;15.47;96.28;95277.91;1722055;81;21144;-55
2022/08/10 06:06:43;;;;;;;8.45;3.85;;;;;;;15.46;95.78;95278.36;1714562;81;21006;-55
2022/08/10 06:09:10;;;;;;;8.83;4.72;;;;;;;15.42;95.82;95272.21;1717957;81;21028;-54
2022/08/10 06:15:00;;;;;;;4.55;3.55;;;;;;;15.42;95.86;95284.08;1722039;81;21778;-55
2022/08/10 06:17:29;;;;;;;12.37;8.40;;;;;;;15.47;95.70;95282.67;1690429;81;21334;-50
2022/08/10 06:19:58;;;;;;;7.12;4.90;;;;;;;15.51;95.58;95283.30;1705203;81;21044;-51
2022/08/10 06:22:26;;;;;;;9.20;5.80;;;;;;;15.57;95.69;95281.42;1708703;80;20996;-51
2022/08/10 06:24:57;;;;;;;10.28;6.67;;;;;;;15.60;95.81;95280.48;1717430;80;21843;-52
2022/08/10 06:27:24;;;;;;;4.37;3.50;;;;;;;15.65;95.93;95290.34;1743404;80;21590;-52
2022/08/10 06:29:53;;;;;;;8.28;4.15;;;;;;;15.73;95.64;95281.83;1669122;82;21264;-53
2022/08/10 06:32:24;;;;;;;15.03;7.97;;;;;;;15.78;95.12;95276.27;1719286;80;21151;-53
2022/08/10 06:34:55;;;;;;;11.48;4.78;;;;;;;15.79;94.71;95282.76;1709092;81;21561;-54
2022/08/10 06:37:26;;;;;;;7.53;4.20;;;;;;;15.85;94.91;95280.88;1709248;81;21110;-53
2022/08/10 06:39:54;;;;;;;8.10;5.35;;;;;;;15.92;94.54;95281.16;1746476;79;21099;-56
2022/08/10 06:42:32;;;;;;;8.25;3.72;;;;;;;15.94;94.15;95279.44;1725409;80;22624;-54
2022/08/10 06:45:16;;;;;;;5.92;4.53;;;;;;;15.99;93.91;95277.44;1732505;80;21128;-53
2022/08/10 06:47:52;;;;;;;;;;;;;;;16.04;93.53;95284.33;1745949;80;21048;-50
2022/08/10 06:50:31;;;;;;;8.20;4.12;;;;;;;16.04;92.92;95284.33;1723948;80;20177;-52
2022/08/10 06:52:59;;;;;;;5.40;4.15;;;;;;;16.06;92.49;95284.66;1706923;81;21069;-52
2022/08/10 06:55:27;;;;;;;4.00;3.60;;;;;;;16.09;91.73;95277.53;1731686;81;21140;-52
2022/08/10 06:57:55;;;;;;;5.58;3.75;;;;;;;16.13;91.16;95277.38;1709577;81;20993;-52
2022/08/10 07:00:22;;;;;;;4.85;3.95;;;;;;;16.18;91.39;95287.22;1741060;80;21914;-56
2022/08/10 07:02:56;;;;;;;6.12;4.05;;;;;;;16.24;91.08;95285.33;1745733;80;21108;-53
2022/08/10 07:05:26;;;;;;;5.50;4.10;;;;;;;16.24;90.49;95284.58;1744965;79;21009;-52
2022/08/10 07:07:57;;;;;;;4.47;3.85;;;;;;;16.26;90.82;95281.45;1722132;81;21072;-52
2022/08/10 07:10:27;;;;;;;9.05;3.85;;;;;;;16.30;90.45;95280.66;1718482;81;21086;-52
2022/08/10 07:12:57;;;;;;;4.80;3.77;;;;;;;16.29;89.97;95282.69;1707155;81;21125;-50
2022/08/10 07:15:25;;;;;;;5.05;3.58;;;;;;;16.31;89.67;95280.81;1729207;81;21124;-51
2022/08/10 07:17:52;;;;;;;4.40;3.58;;;;;;;16.38;90.07;95281.90;1718171;82;21569;-53
2022/08/10 07:20:20;;;;;;;3.80;3.35;;;;;;;16.42;89.64;95271.38;1714563;82;21096;-53
2022/08/10 07:22:50;;;;;;;4.22;3.70;;;;;;;16.49;89.18;95280.13;1687895;82;21146;-52
2022/08/10 07:25:21;;;;;;;3.58;3.12;;;;;;;16.53;88.70;95284.89;1730984;80;20999;-54
2022/08/10 07:27:48;;;;;;;3.83;3.00;;;;;;;16.54;87.63;95290.59;1749879;80;21489;-53
2022/08/10 07:30:16;;;;;;;5.83;3.75;;;;;;;16.48;87.33;95287.53;1745632;80;21029;-54
2022/08/10 07:32:43;;;;;;;4.55;3.50;;;;;;;16.40;87.29;95287.75;1743526;80;21083;-54
2022/08/10 07:35:13;;;;;;;5.95;4.08;;;;;;;16.40;87.62;95292.67;1735231;81;21162;-52
2022/08/10 07:37:40;;;;;;;4.97;4.42;;;;;;;16.40;87.62;95294.05;1704235;81;21147;-51
2022/08/10 07:40:09;;;;;;;4.60;4.20;;;;;;;16.41;87.94;95285.91;1731864;80;21127;-51
2022/08/10 07:42:37;;;;;;;4.40;3.47;;;;;;;16.45;87.85;95292.65;1737815;79;21081;-50
2022/08/10 07:45:06;;;;;;;6.95;5.03;;;;;;;16.45;87.88;95294.04;1716441;81;21129;-50
2022/08/10 07:47:40;;;;;;;5.87;4.40;;;;;;;16.49;88.62;95296.02;1736720;80;21048;-52
2022/08/10 07:50:10;;;;;;;4.40;3.90;;;;;;;16.55;89.43;95299.06;1711839;80;21041;-50
2022/08/10 07:52:38;;;;;;;4.22;3.83;;;;;;;16.61;89.37;95298.59;1734054;80;21028;-54
2022/08/10 07:55:07;;;;;;;5.33;4.05;;;;;;;16.65;89.01;95292.83;1735671;80;21471;-52
2022/08/10 07:57:36;;;;;;;4.53;4.12;;;;;;;16.70;89.13;95294.98;1705665;81;21256;-53
2022/08/10 08:00:10;;;;;;;5.37;4.87;;;;;;;16.69;88.18;95294.84;1734954;81;21279;-51
2022/08/10 08:02:54;;;;;;;8.83;4.58;;;;;;;16.69;88.64;95302.53;1746974;80;21120;-52
2022/08/10 08:05:24;;;;;;;9.18;4.70;;;;;;;16.74;89.20;95303.91;1756869;78;21541;-55
2022/08/10 08:07:52;;;;;;;5.60;5.10;;;;;;;16.77;89.27;95305.73;1749229;78;20959;-51
2022/08/10 08:10:22;;;;;;;7.75;4.60;;;;;;;16.79;89.16;95301.25;1748455;80;21223;-51
2022/08/10 08:12:50;;;;;;;7.87;4.53;;;;;;;16.84;89.00;95303.98;1747974;80;21466;-51
2022/08/10 08:15:19;;;;;;;5.72;5.12;;;;;;;16.81;88.96;95306.31;1743544;80;22068;-51
2022/08/10 08:17:48;;;;;;;6.67;4.92;;;;;;;16.74;89.04;95303.91;1716808;81;21096;-53
2022/08/10 08:20:16;;;;;;;5.17;4.62;;;;;;;16.72;89.20;95301.59;1677824;81;21145;-53
2022/08/10 08:22:44;;;;;;;6.30;4.80;;;;;;;16.73;89.09;95306.53;1709783;81;21070;-52
2022/08/10 08:25:12;;;;;;;9.90;5.70;;;;;;;16.78;89.18;95303.88;1721535;81;21795;-51
2022/08/10 08:27:41;;;;;;;5.05;4.60;;;;;;;16.81;89.48;95310.48;1725162;81;21042;-51
2022/08/10 08:30:09;;;;;;;7.05;4.78;;;;;;;16.80;89.79;95308.34;1718161;81;21032;-52
2022/08/10 08:32:40;;;;;;;8.65;6.05;;;;;;;16.76;89.76;95300.03;1712126;81;21032;-51
2022/08/10 08:35:10;;;;;;;8.65;4.75;;;;;;;16.72;90.25;95296.66;1716204;81;21198;-51
2022/08/10 08:37:38;;;;;;;5.95;4.95;;;;;;;16.79;90.71;95297.69;1717738;79;21054;-54
2022/08/10 08:40:26;;;;;;;6.20;5.37;;;;;;;16.84;90.52;95298.41;1668772;82;21689;-52
2022/08/10 08:43:33;;;;;;;8.63;5.42;;;;;;;16.83;90.42;95286.55;1716592;82;21162;-54
2022/08/10 08:46:33;;;;;;;4.90;4.40;;;;;;;16.86;90.43;95290.37;1736200;81;21206;-52
2022/08/10 08:49:33;;;;;;;7.05;5.00;;;;;;;16.87;90.39;95291.94;1688873;81;21352;-53
2022/08/10 08:52:40;;;;;;;11.05;5.10;;;;;;;16.84;90.29;95294.25;1721511;81;21069;-49
2022/08/10 08:55:35;;;;;;;9.70;8.63;;;;;;;16.84;90.98;95292.25;1707883;81;21476;-50
2022/08/10 08:58:27;;;;;;;15.20;7.08;;;;;;;16.94;90.90;95295.73;1717130;79;21054;-51
2022/08/10 09:01:12;;;;;;;7.97;5.40;;;;;;;16.98;90.01;95297.09;1725517;80;21358;-50
2022/08/10 09:03:51;;;;;;;12.07;7.37;;;;;;;17.00;89.78;95297.38;1729309;80;21724;-50
2022/08/10 09:07:11;;;;;;;13.18;9.20;;;;;;;16.96;89.95;95301.58;1732660;80;21129;-52
2022/08/10 09:10:31;;;;;;;8.45;5.75;;;;;;;16.97;90.11;95303.12;1730511;81;21662;-52
2022/08/10 09:13:15;;;;;;;6.87;5.67;;;;;;;17.02;90.02;95303.84;1722051;81;21046;-51
2022/08/10 09:15:54;;;;;;;7.60;4.70;;;;;;;17.05;89.60;95300.89;1696975;82;21565;-54
2022/08/10 09:19:02;;;;;;;5.83;5.20;;;;;;;17.12;88.91;95292.81;1688934;81;21909;-55
2022/08/10 09:21:46;;;;;;;5.58;5.05;;;;;;;17.15;88.66;95297.41;1718335;80;21088;-51
2022/08/10 09:24:40;;;;;;;8.63;5.15;;;;;;;17.22;88.82;95302.59;1726398;81;21069;-52
2022/08/10 09:27:12;;;;;;;5.55;5.05;;;;;;;17.24;88.79;95293.19;1717487;80;21096;-53
2022/08/10 09:29:48;;;;;;;5.92;5.22;;;;;;;17.27;88.84;95301.95;1724228;80;20966;-55
2022/08/10 09:32:36;;;;;;;7.95;4.35;;;;;;;17.32;88.62;95294.33;1681205;82;21295;-52
2022/08/10 09:35:44;;;;;;;5.03;4.22;;;;;;;17.40;87.73;95295.52;1730627;80;21522;-52
2022/08/10 09:39:00;;;;;;;5.67;4.58;;;;;;;17.47;87.29;95291.73;1724086;82;21505;-53
2022/08/10 09:41:52;;;;;;;7.25;5.53;;;;;;;17.56;87.09;95293.66;1671650;82;37946;-53
2022/08/10 09:44:48;;;;;;;7.45;5.67;;;;;;;17.72;85.59;95292.58;1677969;82;21213;-53
2022/08/10 09:47:37;;;;;;;5.17;4.67;;;;;;;17.85;84.63;95289.50;1683502;84;21333;-53
2022/08/10 09:50:34;;;;;;;8.20;5.25;;;;;;;17.90;83.73;95293.78;1729912;79;22270;-52
2022/08/10 09:53:38;;;;;;;6.28;5.30;;;;;;;17.94;83.13;95292.17;1735901;80;21628;-52
2022/08/10 09:56:48;;;;;;;6.72;5.40;;;;;;;17.94;81.82;95289.39;1724224;80;21088;-51
2022/08/10 09:59:33;;;;;;;6.47;5.05;;;;;;;17.95;81.73;95281.17;1720220;81;21142;-50
2022/08/10 10:02:26;;;;;;;6.10;5.10;;;;;;;17.94;81.78;95280.42;1739110;80;21261;-53
2022/08/10 10:05:07;;;;;;;7.07;5.27;;;;;;;18.01;81.61;95285.59;1714025;80;21062;-53
2022/08/10 10:07:39;;;;;;;6.42;5.25;;;;;;;18.03;80.28;95283.73;1746201;80;20981;-51
2022/08/10 10:10:27;;;;;;;10.95;5.70;;;;;;;18.05;80.57;95272.23;1747894;80;21062;-55
2022/08/10 10:13:08;;;;;;;6.92;5.33;;;;;;;18.06;80.19;95274.41;1714699;81;21324;-50
2022/08/10 10:16:09;;;;;;;5.60;4.22;;;;;;;18.04;80.42;95276.27;1728088;80;21226;-52
2022/08/10 10:19:18;;;;;;;5.30;4.60;;;;;;;18.16;80.45;95275.84;1734017;80;21596;-53
2022/08/10 10:21:57;;;;;;;6.95;4.37;;;;;;;18.22;79.62;95272.64;1747586;81;21080;-55
2022/08/10 10:24:35;;;;;;;8.45;4.90;;;;;;;18.29;78.94;95275.05;1745577;80;21092;-50
2022/08/10 10:27:33;;;;;;;7.53;4.97;;;;;;;18.38;78.44;95276.34;1745074;80;21148;-50
2022/08/10 10:30:11;;;;;;;6.10;5.03;;;;;;;18.48;78.10;95272.80;1741166;80;21264;-50
2022/08/10 10:33:00;;;;;;;5.80;4.17;;;;;;;18.56;78.03;95263.55;1716217;80;21069;-51
2022/08/10 10:35:47;;;;;;;6.45;4.60;;;;;;;18.66;77.33;95269.76;1730452;81;20954;-50
2022/08/10 10:38:15;;;;;;;4.72;4.28;;;;;;;18.83;76.85;95273.53;1749095;80;21021;-52
2022/08/10 10:41:10;;;;;;;7.20;4.10;;;;;;;19.02;76.50;95269.96;1749201;81;21046;-50
2022/08/10 10:44:16;;;;;;;8.50;4.40;;;;;;;19.20;75.51;95267.55;1744989;81;21212;-51
2022/08/10 10:47:10;;;;;;;9.35;4.97;;;;;;;19.36;74.84;95271.16;1746977;80;21077;-56
2022/08/10 10:49:46;;;;;;;6.80;5.65;;;;;;;19.47;73.87;95258.08;1706881;81;21120;-48
2022/08/10 10:52:31;;;;;;;6.95;4.70;;;;;;;19.62;74.15;95260.14;1717178;80;21073;-51
2022/08/10 10:55:13;;;;;;;5.17;4.67;;;;;;;19.72;72.75;95260.09;1714082;82;21066;-51
2022/08/10 10:58:02;;;;;;;9.43;6.08;;;;;;;19.80;70.47;95257.01;1686010;82;21300;-50
2022/08/10 11:01:03;;;;;;;7.62;4.70;;;;;;;19.81;71.13;95257.14;1731844;81;21076;-52
2022/08/10 11:04:08;;;;;;;9.20;4.92;;;;;;;19.81;70.44;95260.55;1733105;80;21541;-54
2022/08/10 11:06:49;;;;;;;13.05;5.75;;;;;;;19.70;70.24;95257.03;1726052;79;21081;-53
2022/08/10 11:09:46;;;;;;;28.80;6.28;;;;;;;19.59;71.18;95250.58;1721563;81;21048;-51
2022/08/10 11:12:30;;;;;;;22.98;5.70;;;;;;;19.54;70.77;95253.44;1714030;81;21194;-57
2022/08/10 11:15:15;;;;;;;13.60;7.00;;;;;;;19.50;70.58;95248.72;1712767;81;21077;-50
2022/08/10 11:18:02;;;;;;;8.55;5.08;;;;;;;19.53;71.09;95249.12;1698451;82;21101;-51
2022/08/10 11:20:53;;;;;;;9.68;5.97;;;;;;;19.60;70.14;95250.06;1723869;81;22288;-51
2022/08/10 11:23:37;;;;;;;8.00;4.90;;;;;;;19.68;70.12;95245.59;1711532;82;21073;-55
2022/08/10 11:26:19;;;;;;;11.78;5.40;;;;;;;19.79;69.18;95247.09;1725338;81;21707;-54
2022/08/10 11:29:01;;;;;;;5.63;4.67;;;;;;;19.89;68.72;95244.89;1694487;82;21105;-55
2022/08/10 11:31:49;;;;;;;11.63;6.00;;;;;;;19.91;67.89;95245.91;1668237;83;21070;-52
2022/08/10 11:34:33;;;;;;;5.40;4.53;;;;;;;19.89;67.16;95241.45;1702080;82;21012;-53
2022/08/10 11:37:32;;;;;;;6.65;4.37;;;;;;;19.79;66.98;95240.12;1695191;82;21218;-50
2022/08/10 11:40:25;;;;;;;7.05;4.70;;;;;;;19.73;67.27;95242.08;1661947;84;21155;-53
2022/08/10 11:43:25;;;;;;;9.08;4.20;;;;;;;19.73;67.06;95235.73;1733832;80;21042;-51
2022/08/10 11:46:12;;;;;;;10.08;4.92;;;;;;;19.81;66.47;95233.41;1746696;80;21476;-53
2022/08/10 11:48:44;;;;;;;4.92;4.10;;;;;;;19.94;66.02;95233.00;1723402;80;21006;-51
2022/08/10 11:51:20;;;;;;;4.72;4.33;;;;;;;20.06;64.97;95235.41;1716119;82;21110;-52
2022/08/10 11:54:03;;;;;;;9.88;4.80;;;;;;;20.20;64.92;95228.26;1718218;81;21138;-51
2022/08/10 11:56:38;;;;;;;;;;;;;;;20.48;65.40;95224.24;1670387;82;21106;-52
2022/08/10 12:01:53;;;;;;;6.15;3.90;;;;;;;21.23;65.08;95219.52;1726124;81;21530;-52
2022/08/10 12:04:20;;;;;;;12.53;4.28;;;;;;;21.69;63.84;95220.53;1732318;80;21102;-51
2022/08/10 12:06:49;;;;;;;8.20;4.60;;;;;;;22.07;62.27;95213.55;1742201;80;21200;-52
2022/08/10 12:09:19;;;;;;;6.75;3.92;;;;;;;22.37;61.13;95207.50;1726535;80;21313;-51
2022/08/10 12:11:49;;;;;;;8.03;3.77;;;;;;;22.77;58.34;95200.67;1739154;80;21117;-51
2022/08/10 12:14:20;;;;;;;9.30;4.12;;;;;;;23.02;56.85;95207.97;1731427;80;21643;-53
2022/08/10 12:16:55;;;;;;;10.03;4.25;;;;;;;23.13;55.68;95204.38;1739009;80;21314;-51
2022/08/10 12:19:46;;;;;;;8.25;3.72;;;;;;;23.41;55.17;95202.19;1723172;81;21240;-50
2022/08/10 12:22:19;;;;;;;5.95;3.62;;;;;;;23.38;54.37;95199.77;1726867;81;21545;-52